createdAt,value
2018-06-05T00:01:21.359Z,44.33
2018-06-05T00:04:24.581Z,50.33
2018-06-05T00:07:27.786Z,48.00
2018-06-05T00:10:31.050Z,41.93
2018-06-05T00:13:34.261Z,45.90
2018-06-05T00:16:37.417Z,54.80
2018-06-05T00:19:40.558Z,47.40
2018-06-05T00:22:43.739Z,50.17
2018-06-05T00:25:46.926Z,52.13
2018-06-05T00:28:50.978Z,49.17
2018-06-05T00:31:56.289Z,53.00
2018-06-05T00:34:59.486Z,53.20
2018-06-05T00:38:02.787Z,52.70
2018-06-05T00:41:05.977Z,51.70
2018-06-05T00:44:09.224Z,55.07
2018-06-05T00:47:12.249Z,55.83
2018-06-05T00:50:15.447Z,55.97
2018-06-05T00:53:18.626Z,53.30
2018-06-05T00:56:21.822Z,57.97
2018-06-05T00:59:24.978Z,56.57
2018-06-05T01:02:28.359Z,50.90
2018-06-05T01:05:31.651Z,53.77
2018-06-05T01:08:34.850Z,58.70
2018-06-05T01:11:38.047Z,53.03
2018-06-05T01:14:41.241Z,55.77
2018-06-05T01:17:44.452Z,53.10
2018-06-05T01:20:47.533Z,54.27
2018-06-05T01:23:50.737Z,50.43
2018-06-05T01:26:53.765Z,55.10
2018-06-05T01:29:57.022Z,52.23
2018-06-05T01:33:00.017Z,52.93
2018-06-05T01:36:03.078Z,49.00
2018-06-05T01:39:08.837Z,51.40
2018-06-05T01:42:12.110Z,50.67
2018-06-05T01:45:15.418Z,53.30
2018-06-05T01:48:21.830Z,48.97
2018-06-05T01:51:25.033Z,47.67
2018-06-05T01:54:28.334Z,48.63
2018-06-05T01:57:31.594Z,51.10
2018-06-05T02:00:34.830Z,46.70
2018-06-05T02:03:38.056Z,47.33
2018-06-05T02:06:41.209Z,45.73
2018-06-05T02:09:44.386Z,48.37
2018-06-05T02:12:47.339Z,48.87
2018-06-05T02:15:50.602Z,49.77
2018-06-05T02:18:53.828Z,45.93
2018-06-05T02:21:57.134Z,45.93
2018-06-05T02:25:00.430Z,42.83
2018-06-05T02:28:03.739Z,47.87
2018-06-05T02:31:07.054Z,47.37
2018-06-05T02:34:10.330Z,43.97
2018-06-05T02:37:13.643Z,44.83
2018-06-05T02:40:16.889Z,42.53
2018-06-05T02:43:20.321Z,44.17
2018-06-05T02:46:23.536Z,46.03
2018-06-05T02:49:26.796Z,47.30
2018-06-05T02:52:30.075Z,45.80
2018-06-05T02:55:33.348Z,44.27
2018-06-05T02:58:36.587Z,44.80
2018-06-05T03:01:39.782Z,44.60
2018-06-05T03:04:43.054Z,45.17
2018-06-05T03:07:46.355Z,46.80
2018-06-05T03:10:49.570Z,44.17
2018-06-05T03:13:52.906Z,44.37
2018-06-05T03:16:56.170Z,46.03
2018-06-05T03:19:59.422Z,43.97
2018-06-05T03:23:02.618Z,47.40
2018-06-05T03:26:05.862Z,44.07
2018-06-05T03:29:08.813Z,46.20
2018-06-05T03:32:12.126Z,45.70
2018-06-05T03:35:15.242Z,50.57
2018-06-05T03:38:18.294Z,45.37
2018-06-05T03:41:21.529Z,44.97
2018-06-05T03:44:24.517Z,47.63
2018-06-05T03:47:27.501Z,44.40
2018-06-05T03:50:30.376Z,46.17
2018-06-05T03:53:33.437Z,45.37
2018-06-05T03:56:36.537Z,40.93
2018-06-05T03:59:39.625Z,40.13
2018-06-05T04:02:42.698Z,41.40
2018-06-05T04:05:46.465Z,41.70
2018-06-05T04:08:49.356Z,40.40
2018-06-05T04:11:52.216Z,40.90
2018-06-05T04:14:55.304Z,40.00
2018-06-05T04:17:58.377Z,36.93
2018-06-05T04:21:01.485Z,37.57
2018-06-05T04:24:04.577Z,43.33
2018-06-05T04:27:07.708Z,40.73
2018-06-05T04:30:10.753Z,40.20
2018-06-05T04:33:13.846Z,40.00
2018-06-05T04:36:16.915Z,40.03
2018-06-05T04:39:19.978Z,39.43
2018-06-05T04:42:23.036Z,38.57
2018-06-05T04:45:26.128Z,39.93
2018-06-05T04:48:34.850Z,40.87
2018-06-05T04:51:38.285Z,36.87
2018-06-05T04:54:41.393Z,36.97
2018-06-05T04:57:44.458Z,39.67
2018-06-05T05:00:47.347Z,36.37
2018-06-05T05:03:50.476Z,41.00
2018-06-05T05:06:53.644Z,42.30
2018-06-05T05:09:56.727Z,39.07
2018-06-05T05:12:59.801Z,41.20
2018-06-05T05:16:02.698Z,35.83
2018-06-05T05:19:05.554Z,36.10
2018-06-05T05:22:08.629Z,37.53
2018-06-05T05:25:11.709Z,36.97
2018-06-05T05:28:14.765Z,35.10
2018-06-05T05:31:17.832Z,35.07
2018-06-05T05:34:20.885Z,37.87
2018-06-05T05:37:24.046Z,38.40
2018-06-05T05:40:27.115Z,35.13
2018-06-05T05:43:29.972Z,33.43
2018-06-05T05:46:33.059Z,32.73
2018-06-05T05:49:36.137Z,32.23
2018-06-05T05:52:39.209Z,38.67
2018-06-05T05:55:42.289Z,32.23
2018-06-05T05:58:45.396Z,36.23
2018-06-05T06:01:48.477Z,32.43
2018-06-05T06:04:51.566Z,32.60
2018-06-05T06:07:54.664Z,33.30
2018-06-05T06:10:57.768Z,33.03
2018-06-05T06:14:00.820Z,35.23
2018-06-05T06:17:03.708Z,29.07
2018-06-05T06:20:06.780Z,35.40
2018-06-05T06:23:09.861Z,30.73
2018-06-05T06:26:12.938Z,44.60
2018-06-05T06:29:16.014Z,31.07
2018-06-05T06:32:19.073Z,29.80
2018-06-05T06:35:22.146Z,31.57
2018-06-05T06:38:25.023Z,29.87
2018-06-05T06:41:28.113Z,27.57
2018-06-05T06:44:42.465Z,28.87
2018-06-05T06:47:45.561Z,29.53
2018-06-05T06:50:48.688Z,28.17
2018-06-05T06:53:51.754Z,29.97
2018-06-05T06:56:54.633Z,29.93
2018-06-05T06:59:57.507Z,26.40
2018-06-05T07:03:00.589Z,24.17
2018-06-05T07:06:03.665Z,25.40
2018-06-05T07:09:08.030Z,25.20
2018-06-05T07:12:10.947Z,26.27
2018-06-05T07:15:13.808Z,26.83
2018-06-05T07:18:16.702Z,26.33
2018-06-05T07:21:19.782Z,25.47
2018-06-05T07:24:22.633Z,28.53
2018-06-05T07:27:25.709Z,27.03
2018-06-05T07:30:28.825Z,27.47
2018-06-05T07:33:31.833Z,25.47
2018-06-05T07:36:34.700Z,26.13
2018-06-05T07:39:37.854Z,26.50
2018-06-05T07:42:40.945Z,28.20
2018-06-05T07:45:44.018Z,27.03
2018-06-05T07:48:47.097Z,27.43
2018-06-05T07:51:49.988Z,26.13
2018-06-05T07:54:52.833Z,28.47
2018-06-05T07:57:55.917Z,28.90
2018-06-05T08:00:58.972Z,31.60
2018-06-05T08:04:02.055Z,28.33
2018-06-05T08:07:05.121Z,27.77
2018-06-05T08:10:07.988Z,26.47
2018-06-05T08:13:11.082Z,30.00
2018-06-05T08:16:14.182Z,26.50
2018-06-05T08:19:17.266Z,26.23
2018-06-05T08:22:20.373Z,32.07
2018-06-05T08:25:23.445Z,26.73
2018-06-05T08:28:26.521Z,25.33
2018-06-05T08:31:39.248Z,27.77
2018-06-05T08:34:42.357Z,25.70
2018-06-05T08:37:45.444Z,26.70
2018-06-05T08:40:48.495Z,28.80
2018-06-05T08:43:51.573Z,27.00
2018-06-05T08:46:54.668Z,25.33
2018-06-05T08:49:57.749Z,28.57
2018-06-05T08:53:00.845Z,25.63
2018-06-05T08:56:03.912Z,25.17
2018-06-05T08:59:06.976Z,25.33
2018-06-05T09:02:10.074Z,25.13
2018-06-05T09:05:13.159Z,24.97
2018-06-05T09:08:16.237Z,24.57
2018-06-05T09:11:19.331Z,24.87
2018-06-05T09:14:22.409Z,27.77
2018-06-05T09:17:25.504Z,25.93
2018-06-05T09:20:28.573Z,29.70
2018-06-05T09:23:31.638Z,26.37
2018-06-05T09:26:34.705Z,31.27
2018-06-05T09:29:37.790Z,28.70
2018-06-05T09:32:40.887Z,28.03
2018-06-05T09:35:43.948Z,30.87
2018-06-05T09:38:47.021Z,29.93
2018-06-05T09:41:50.081Z,26.20
2018-06-05T09:44:52.977Z,27.10
2018-06-05T09:47:56.067Z,29.20
2018-06-05T09:51:13.738Z,26.03
2018-06-05T09:54:16.809Z,25.23
2018-06-05T09:57:19.882Z,23.53
2018-06-05T10:00:28.954Z,25.70
2018-06-05T10:03:32.051Z,27.00
2018-06-05T10:06:35.114Z,25.23
2018-06-05T10:09:38.209Z,24.27
2018-06-05T10:12:41.276Z,21.77
2018-06-05T10:15:44.327Z,25.30
2018-06-05T10:18:47.412Z,26.37
2018-06-05T10:21:50.477Z,24.50
2018-06-05T10:24:53.552Z,21.80
2018-06-05T10:27:56.626Z,23.37
2018-06-05T10:30:59.492Z,24.60
2018-06-05T10:34:02.574Z,23.80
2018-06-05T10:37:05.654Z,22.80
2018-06-05T10:40:08.758Z,22.27
2018-06-05T10:43:11.838Z,21.70
2018-06-05T10:46:14.925Z,22.47
2018-06-05T10:49:17.990Z,20.87
2018-06-05T10:52:21.069Z,24.53
2018-06-05T10:55:24.171Z,23.33
2018-06-05T10:58:27.237Z,20.27
2018-06-05T11:01:30.138Z,21.90
2018-06-05T11:04:33.188Z,19.63
2018-06-05T11:07:36.257Z,21.13
2018-06-05T11:10:39.337Z,23.37
2018-06-05T11:13:42.433Z,22.23
2018-06-05T11:16:45.487Z,23.50
2018-06-05T11:19:48.569Z,23.37
2018-06-05T11:22:51.441Z,23.63
2018-06-05T11:26:00.885Z,22.90
2018-06-05T11:29:03.773Z,22.30
2018-06-05T11:32:06.637Z,20.47
2018-06-05T11:35:09.734Z,21.27
2018-06-05T11:38:12.797Z,22.70
2018-06-05T11:41:15.905Z,21.60
2018-06-05T11:44:19.021Z,21.20
2018-06-05T11:47:22.093Z,20.83
2018-06-05T11:50:25.185Z,20.60
2018-06-05T11:53:41.034Z,22.20
2018-06-05T11:56:44.133Z,25.27
2018-06-05T11:59:47.189Z,23.67
2018-06-05T12:02:50.259Z,20.73
2018-06-05T12:05:53.317Z,22.13
2018-06-05T12:08:56.417Z,21.50
2018-06-05T12:11:59.517Z,22.13
2018-06-05T12:15:02.572Z,20.40
2018-06-05T12:18:05.646Z,24.17
2018-06-05T12:21:08.704Z,20.87
2018-06-05T12:24:11.766Z,22.17
2018-06-05T12:27:14.852Z,19.90
2018-06-05T12:30:18.106Z,19.77
2018-06-05T12:33:21.036Z,22.77
2018-06-05T12:36:26.303Z,20.03
2018-06-05T12:39:29.401Z,20.10
2018-06-05T12:42:32.577Z,20.40
2018-06-05T12:45:35.669Z,19.23
2018-06-05T12:48:38.753Z,21.50
2018-06-05T12:51:41.897Z,23.50
2018-06-05T12:54:45.158Z,20.63
2018-06-05T12:57:48.226Z,25.20
2018-06-05T13:00:51.299Z,20.73
2018-06-05T13:03:54.364Z,22.33
2018-06-05T13:06:57.425Z,19.97
2018-06-05T13:10:00.523Z,19.87
2018-06-05T13:13:03.613Z,23.03
2018-06-05T13:16:06.673Z,19.50
2018-06-05T13:19:09.737Z,22.30
2018-06-05T13:22:12.841Z,25.53
2018-06-05T13:25:29.276Z,20.00
2018-06-05T13:28:32.345Z,21.43
2018-06-05T13:31:35.437Z,21.40
2018-06-05T13:34:38.492Z,20.13
2018-06-05T13:37:41.562Z,22.07
2018-06-05T13:40:44.633Z,19.20
2018-06-05T13:43:47.727Z,22.10
2018-06-05T13:46:50.805Z,25.00
2018-06-05T13:49:53.880Z,22.93
2018-06-05T13:52:56.953Z,22.77
2018-06-05T13:56:00.038Z,20.30
2018-06-05T13:59:03.317Z,23.07
2018-06-05T14:02:06.201Z,22.97
2018-06-05T14:05:09.072Z,23.00
2018-06-05T14:08:12.161Z,22.47
2018-06-05T14:11:15.261Z,22.40
2018-06-05T14:14:18.335Z,22.30
2018-06-05T14:17:21.590Z,22.97
2018-06-05T14:20:24.645Z,25.73
2018-06-05T14:23:27.580Z,22.47
2018-06-05T14:26:30.673Z,22.37
2018-06-05T14:29:33.750Z,24.67
2018-06-05T14:32:36.849Z,21.93
2018-06-05T14:35:39.919Z,24.37
2018-06-05T14:38:42.992Z,20.33
2018-06-05T14:41:45.844Z,22.03
2018-06-05T14:44:48.921Z,21.53
2018-06-05T14:47:52.003Z,25.03
2018-06-05T14:50:55.086Z,22.27
2018-06-05T14:53:58.204Z,21.63
2018-06-05T14:57:01.247Z,22.77
2018-06-05T15:00:04.308Z,21.13
2018-06-05T15:03:07.392Z,25.30
2018-06-05T15:06:10.470Z,21.63
2018-06-05T15:09:13.553Z,20.93
2018-06-05T15:12:16.650Z,19.70
2018-06-05T15:15:19.736Z,22.57
2018-06-05T15:18:22.849Z,22.27
2018-06-05T15:21:25.925Z,22.57
2018-06-05T15:24:29.020Z,21.80
2018-06-05T15:27:32.117Z,22.07
2018-06-05T15:30:35.193Z,22.53
2018-06-05T15:33:38.293Z,20.27
2018-06-05T15:36:41.382Z,21.70
2018-06-05T15:39:44.473Z,22.63
2018-06-05T15:42:47.557Z,21.50
2018-06-05T15:45:50.718Z,22.10
2018-06-05T15:48:53.793Z,20.13
2018-06-05T15:51:56.877Z,20.13
2018-06-05T15:54:59.736Z,24.83
2018-06-05T15:58:02.826Z,22.53
2018-06-05T16:01:05.909Z,20.40
2018-06-05T16:04:08.999Z,22.73
2018-06-05T16:07:12.084Z,21.70
2018-06-05T16:10:15.185Z,23.77
2018-06-05T16:13:18.297Z,21.57
2018-06-05T16:16:21.369Z,19.70
2018-06-05T16:19:24.462Z,17.33
2018-06-05T16:22:27.594Z,17.77
2018-06-05T16:25:30.468Z,19.37
2018-06-05T16:28:33.577Z,18.40
2018-06-05T16:31:36.653Z,19.57
2018-06-05T16:34:39.535Z,18.40
2018-06-05T16:37:42.629Z,18.87
2018-06-05T16:40:45.725Z,18.33
2018-06-05T16:43:48.587Z,19.33
2018-06-05T16:46:51.660Z,17.40
2018-06-05T16:49:54.749Z,18.90
2018-06-05T16:52:57.842Z,18.30
2018-06-05T16:56:00.968Z,18.37
2018-06-05T16:59:04.013Z,19.37
2018-06-05T17:02:07.098Z,17.20
2018-06-05T17:05:10.186Z,19.17
2018-06-05T17:08:13.281Z,38.23
2018-06-05T17:11:16.377Z,17.57
2018-06-05T17:14:19.491Z,19.50
2018-06-05T17:17:22.542Z,17.63
2018-06-05T17:20:25.624Z,18.03
2018-06-05T17:23:28.690Z,18.93
2018-06-05T17:26:31.762Z,20.60
2018-06-05T17:29:34.813Z,21.57
2018-06-05T17:32:37.915Z,18.90
2018-06-05T17:35:40.994Z,18.83
2018-06-05T17:38:44.081Z,19.23
2018-06-05T17:41:47.153Z,18.77
2018-06-05T17:44:50.213Z,19.03
2018-06-05T17:47:53.282Z,20.83
2018-06-05T17:50:56.389Z,18.93
2018-06-05T17:53:59.471Z,18.63
2018-06-05T17:57:02.539Z,19.80
2018-06-05T18:00:05.618Z,19.63
2018-06-05T18:03:08.681Z,22.50
2018-06-05T18:06:11.737Z,19.37
2018-06-05T18:09:14.813Z,27.23
2018-06-05T18:12:17.929Z,23.27
2018-06-05T18:15:20.961Z,20.37
2018-06-05T18:18:24.024Z,19.80
2018-06-05T18:21:27.109Z,23.43
2018-06-05T18:24:30.177Z,23.63
2018-06-05T18:27:33.245Z,21.77
2018-06-05T18:30:36.321Z,20.17
2018-06-05T18:33:40.045Z,26.50
2018-06-05T18:36:43.341Z,21.50
2018-06-05T18:39:46.433Z,20.67
2018-06-05T18:42:49.490Z,19.20
2018-06-05T18:45:52.650Z,21.50
2018-06-05T18:48:55.795Z,19.37
2018-06-05T18:51:59.599Z,22.20
2018-06-05T18:55:02.710Z,23.20
2018-06-05T18:58:29.059Z,19.83
2018-06-05T19:01:32.129Z,22.43
2018-06-05T19:04:35.250Z,20.43
2018-06-05T19:07:38.299Z,20.07
2018-06-05T19:10:41.385Z,16.93
2018-06-05T19:13:44.452Z,17.53
2018-06-05T19:16:47.581Z,19.33
2018-06-05T19:19:50.645Z,18.00
2018-06-05T19:22:53.736Z,18.30
2018-06-05T19:25:56.593Z,16.07
2018-06-05T19:28:59.674Z,17.30
2018-06-05T19:32:02.772Z,18.67
2018-06-05T19:35:05.837Z,16.13
2018-06-05T19:38:08.894Z,16.20
2018-06-05T19:41:11.789Z,16.00
2018-06-05T19:44:14.803Z,16.30
2018-06-05T19:47:17.874Z,14.43
2018-06-05T19:50:20.973Z,15.40
2018-06-05T19:53:24.044Z,13.73
2018-06-05T19:56:26.900Z,15.73
2018-06-05T19:59:30.778Z,13.90
2018-06-05T20:02:34.213Z,13.60
2018-06-05T20:05:37.370Z,15.17
2018-06-05T20:08:40.349Z,14.67
2018-06-05T20:11:43.446Z,14.47
2018-06-05T20:14:52.371Z,14.30
2018-06-05T20:17:56.391Z,15.97
2018-06-05T20:20:59.521Z,14.57
2018-06-05T20:24:02.793Z,14.30
2018-06-05T20:27:05.876Z,14.87
2018-06-05T20:30:09.030Z,13.07
2018-06-05T20:33:12.111Z,13.73
2018-06-05T20:36:15.002Z,13.70
2018-06-05T20:39:17.954Z,13.83
2018-06-05T20:42:21.034Z,14.27
2018-06-05T20:45:24.133Z,16.50
2018-06-05T20:48:27.230Z,15.50
2018-06-05T20:51:30.289Z,16.13
2018-06-05T20:54:33.394Z,13.63
2018-06-05T20:57:36.479Z,14.03
2018-06-05T21:00:39.553Z,17.03
2018-06-05T21:03:42.625Z,14.53
2018-06-05T21:06:45.706Z,13.77
2018-06-05T21:09:48.784Z,17.67
2018-06-05T21:12:51.873Z,16.60
2018-06-05T21:15:54.980Z,21.83
2018-06-05T21:18:57.829Z,15.77
2018-06-05T21:22:00.907Z,15.50
2018-06-05T21:25:11.414Z,16.60
2018-06-05T21:28:14.504Z,15.50
2018-06-05T21:31:17.560Z,16.67
2018-06-05T21:34:20.649Z,17.33
2018-06-05T21:37:23.720Z,15.70
2018-06-05T21:40:26.805Z,16.03
2018-06-05T21:43:29.887Z,14.97
2018-06-05T21:46:33.001Z,14.93
2018-06-05T21:49:36.193Z,19.23
2018-06-05T21:52:39.269Z,17.13
2018-06-05T21:55:42.366Z,16.90
2018-06-05T21:58:45.481Z,17.33
2018-06-05T22:01:48.640Z,14.83
2018-06-05T22:04:51.736Z,16.80
2018-06-05T22:07:54.833Z,16.13
2018-06-05T22:10:57.922Z,18.07
2018-06-05T22:14:00.981Z,15.03
2018-06-05T22:17:04.070Z,14.10
2018-06-05T22:20:07.135Z,15.47
2018-06-05T22:23:10.229Z,13.23
2018-06-05T22:26:13.298Z,14.57
2018-06-05T22:29:16.365Z,14.03
2018-06-05T22:32:19.433Z,13.53
2018-06-05T22:35:22.296Z,16.10
2018-06-05T22:38:25.377Z,15.47
2018-06-05T22:41:28.445Z,14.07
2018-06-05T22:44:31.577Z,13.00
2018-06-05T22:47:34.661Z,13.87
2018-06-05T22:50:37.726Z,13.43
2018-06-05T22:53:40.810Z,19.57
2018-06-05T22:56:43.881Z,14.30
2018-06-05T22:59:46.943Z,13.53
2018-06-05T23:02:50.018Z,16.67
2018-06-05T23:05:53.088Z,15.30
2018-06-05T23:08:56.158Z,13.93
2018-06-05T23:11:59.241Z,13.53
2018-06-05T23:15:02.298Z,15.70
2018-06-05T23:18:05.366Z,15.23
2018-06-05T23:21:08.445Z,16.20
2018-06-05T23:24:11.514Z,15.30
2018-06-05T23:27:14.582Z,14.30
2018-06-05T23:30:17.660Z,14.60
2018-06-05T23:33:20.528Z,13.57
2018-06-05T23:36:23.591Z,15.37
2018-06-05T23:39:26.665Z,14.27
2018-06-05T23:42:29.769Z,16.33
2018-06-05T23:45:32.838Z,14.47
2018-06-05T23:48:35.934Z,15.47
2018-06-05T23:51:39.003Z,14.67
2018-06-05T23:54:42.082Z,13.87
2018-06-05T23:57:44.967Z,13.40
